Grand Rapids, Canada
Current Conditions -  °F | °C
As of 4:00 PM on Monday 20 Oct 2014 (Local Time) from CYNE Reporting Station
Overcast Overcast  
Wind Chill: 36°   Ceiling: 1600
Heat Index: 41°   Visibility: NA
Dew Point: 34°   Wind: 8mph
Humidity: 76%   Direction: 160°SSE
Pressure: 30.04"   Gusts: NA
Location:  53.18°N, 99.28°W
Report Text: CYNE 202100Z AUTO 16007KT 100V190 OVC016 05/01 A3004 RMK WX MISG VIS MISG PCPN MISG TS/LTNG TEMPO UNAVBL SLP184
Loading
Personal Weather Stations






























Interactive Weather Map
Tropical Storm Tracking
New forecast layout! Learn more

10-Day Weather Forecast

Advertisements
Track Severe Weather on mobile